createdAt,value
2022-10-17T00:02:23.641Z,11.93
2022-10-17T00:04:55.683Z,11.92
2022-10-17T00:07:28.433Z,11.92
2022-10-17T00:10:00.680Z,11.91
2022-10-17T00:12:34.259Z,11.91
2022-10-17T00:15:10.299Z,11.90
2022-10-17T00:17:42.934Z,11.88
2022-10-17T00:20:16.253Z,11.88
2022-10-17T00:22:48.201Z,11.86
2022-10-17T00:25:20.701Z,11.86
2022-10-17T00:27:52.462Z,11.85
2022-10-17T00:30:25.175Z,11.83
2022-10-17T00:32:57.153Z,11.82
2022-10-17T00:35:28.990Z,11.81
2022-10-17T00:38:00.824Z,11.78
2022-10-17T00:40:32.800Z,11.75
2022-10-17T00:43:04.514Z,11.76
2022-10-17T00:45:37.055Z,11.76
2022-10-17T00:48:13.837Z,11.76
2022-10-17T00:50:49.570Z,11.74
2022-10-17T00:53:21.923Z,11.73
2022-10-17T00:55:55.981Z,11.73
2022-10-17T00:58:27.784Z,11.73
2022-10-17T01:00:59.792Z,11.72
2022-10-17T01:03:31.873Z,11.71
2022-10-17T01:06:03.605Z,11.71
2022-10-17T01:08:35.697Z,11.71
2022-10-17T01:11:15.255Z,11.72
2022-10-17T01:13:53.116Z,11.71
2022-10-17T01:16:35.602Z,11.70
2022-10-17T01:19:27.781Z,11.70
2022-10-17T01:22:04.936Z,11.69
2022-10-17T01:24:57.073Z,11.69
2022-10-17T01:27:50.758Z,11.70
2022-10-17T01:31:13.778Z,11.71
2022-10-17T01:33:55.048Z,11.72
2022-10-17T01:36:42.222Z,11.75
2022-10-17T01:39:28.107Z,11.79
2022-10-17T01:42:08.151Z,11.84
2022-10-17T01:44:48.399Z,11.90
2022-10-17T01:47:24.552Z,11.95
2022-10-17T01:50:01.133Z,11.99
2022-10-17T01:52:39.749Z,12.05
2022-10-17T01:55:15.166Z,12.10
2022-10-17T01:57:51.099Z,12.16
2022-10-17T02:00:25.883Z,12.20
2022-10-17T02:03:01.258Z,12.25
2022-10-17T02:05:36.518Z,12.29
2022-10-17T02:08:09.514Z,12.34
2022-10-17T02:10:45.155Z,12.38
2022-10-17T02:13:28.419Z,12.41
2022-10-17T02:16:14.073Z,12.45
2022-10-17T02:19:03.229Z,12.46
2022-10-17T02:21:45.921Z,12.48
2022-10-17T02:24:28.849Z,12.49
2022-10-17T02:27:09.299Z,12.50
2022-10-17T02:29:47.818Z,12.52
2022-10-17T02:32:24.957Z,12.54
2022-10-17T02:35:02.025Z,12.56
2022-10-17T02:37:35.651Z,12.57
2022-10-17T02:40:12.101Z,12.59
2022-10-17T02:42:46.520Z,12.62
2022-10-17T02:45:18.809Z,12.64
2022-10-17T02:48:00.204Z,12.66
2022-10-17T02:50:40.046Z,12.68
2022-10-17T02:53:16.370Z,12.68
2022-10-17T02:55:55.232Z,12.67
2022-10-17T02:58:33.557Z,12.66
2022-10-17T03:01:09.015Z,12.68
2022-10-17T03:03:40.842Z,12.70
2022-10-17T03:06:12.929Z,12.73
2022-10-17T03:08:44.769Z,12.75
2022-10-17T03:11:16.670Z,12.78
2022-10-17T03:13:48.917Z,12.81
2022-10-17T03:16:21.553Z,12.85
2022-10-17T03:18:53.535Z,12.87
2022-10-17T03:21:25.385Z,12.90
2022-10-17T03:23:57.296Z,12.92
2022-10-17T03:26:30.193Z,12.95
2022-10-17T03:29:02.799Z,12.97
2022-10-17T03:31:34.974Z,12.99
2022-10-17T03:34:08.143Z,13.00
2022-10-17T03:36:40.372Z,13.00
2022-10-17T03:39:12.327Z,13.06
2022-10-17T03:41:44.159Z,13.08
2022-10-17T03:44:16.403Z,13.10
2022-10-17T03:46:48.408Z,13.13
2022-10-17T03:49:20.288Z,13.14
2022-10-17T03:51:52.111Z,13.15
2022-10-17T03:54:24.504Z,13.15
2022-10-17T03:59:29.443Z,13.19
2022-10-17T04:02:07.102Z,13.20
2022-10-17T04:04:39.206Z,13.22
2022-10-17T04:07:11.905Z,13.24
2022-10-17T04:09:46.340Z,13.26
2022-10-17T04:12:22.668Z,13.28
2022-10-17T04:14:54.891Z,13.30
2022-10-17T04:17:27.133Z,13.30
2022-10-17T04:20:00.036Z,13.31
2022-10-17T04:22:32.168Z,13.33
2022-10-17T04:25:04.536Z,13.34
2022-10-17T04:27:41.680Z,13.36
2022-10-17T04:30:14.007Z,13.38
2022-10-17T04:32:46.061Z,13.39
2022-10-17T04:35:27.424Z,13.40
2022-10-17T04:38:04.325Z,13.39
2022-10-17T04:40:37.489Z,13.40
2022-10-17T04:43:09.510Z,13.41
2022-10-17T04:45:41.429Z,13.42
2022-10-17T04:48:13.279Z,13.41
2022-10-17T04:50:53.756Z,13.42
2022-10-17T04:53:36.274Z,13.45
2022-10-17T04:56:13.210Z,13.47
2022-10-17T04:58:46.107Z,13.47
2022-10-17T05:01:21.164Z,13.48
2022-10-17T05:03:56.445Z,13.43
2022-10-17T05:06:29.125Z,13.42
2022-10-17T05:09:30.420Z,13.39
2022-10-17T05:12:04.341Z,13.37
2022-10-17T05:14:38.969Z,13.29
2022-10-17T05:17:10.935Z,13.27
2022-10-17T05:19:43.534Z,13.27
2022-10-17T05:22:15.466Z,13.28
2022-10-17T05:24:47.274Z,13.26
2022-10-17T05:27:19.051Z,13.25
2022-10-17T05:29:51.299Z,13.25
2022-10-17T05:32:28.694Z,13.25
2022-10-17T05:35:00.870Z,13.27
2022-10-17T05:37:33.291Z,13.27
2022-10-17T05:40:09.365Z,13.28
2022-10-17T05:42:41.155Z,13.30
2022-10-17T05:45:14.135Z,13.31
2022-10-17T05:47:46.022Z,13.32
2022-10-17T05:50:21.028Z,13.34
2022-10-17T05:53:13.484Z,13.33
2022-10-17T05:55:58.871Z,13.34
2022-10-17T06:01:39.159Z,13.33
2022-10-17T06:04:11.163Z,13.33
2022-10-17T06:06:43.308Z,13.34
2022-10-17T06:09:15.463Z,13.34
2022-10-17T06:11:50.093Z,13.34
2022-10-17T06:14:23.731Z,13.34
2022-10-17T06:16:59.280Z,13.35
2022-10-17T06:19:35.964Z,13.35
2022-10-17T06:22:08.147Z,13.36
2022-10-17T06:24:40.462Z,13.37
2022-10-17T06:27:12.373Z,13.40
2022-10-17T06:29:46.069Z,13.44
2022-10-17T06:32:18.227Z,13.47
2022-10-17T06:34:52.021Z,13.47
2022-10-17T06:37:23.818Z,13.47
2022-10-17T06:39:55.708Z,13.47
2022-10-17T06:42:29.340Z,13.49
2022-10-17T06:45:13.377Z,13.49
2022-10-17T06:48:00.499Z,13.51
2022-10-17T06:50:52.729Z,13.52
2022-10-17T06:53:29.844Z,13.53
2022-10-17T06:56:31.510Z,13.52
2022-10-17T06:59:23.706Z,13.53
2022-10-17T07:02:06.771Z,13.55
2022-10-17T07:04:40.931Z,13.60
2022-10-17T07:07:12.827Z,13.65
2022-10-17T07:09:44.656Z,13.69
2022-10-17T07:12:16.718Z,13.75
2022-10-17T07:14:50.664Z,13.81
2022-10-17T07:17:22.660Z,13.84
2022-10-17T07:19:54.519Z,13.89
2022-10-17T07:22:26.893Z,13.91
2022-10-17T07:25:01.877Z,13.95
2022-10-17T07:28:04.130Z,13.97
2022-10-17T07:30:37.239Z,14.01
2022-10-17T07:33:14.161Z,14.07
2022-10-17T07:35:46.033Z,14.13
2022-10-17T07:38:17.829Z,14.19
2022-10-17T07:40:59.037Z,14.25
2022-10-17T07:43:31.580Z,14.32
2022-10-17T07:46:06.443Z,14.39
2022-10-17T07:48:38.913Z,14.48
2022-10-17T07:51:11.790Z,14.55
2022-10-17T07:53:47.964Z,14.62
2022-10-17T07:56:24.615Z,14.66
2022-10-17T08:01:29.769Z,14.73
2022-10-17T08:04:01.735Z,14.78
2022-10-17T08:06:33.563Z,14.84
2022-10-17T08:09:05.575Z,14.89
2022-10-17T08:11:37.430Z,14.94
2022-10-17T08:14:09.315Z,14.99
2022-10-17T08:16:41.561Z,15.04
2022-10-17T08:19:13.380Z,15.08
2022-10-17T08:21:47.027Z,15.14
2022-10-17T08:24:18.953Z,15.21
2022-10-17T08:26:51.901Z,15.26
2022-10-17T08:29:24.231Z,15.31
2022-10-17T08:32:00.821Z,15.36
2022-10-17T08:34:33.485Z,15.43
2022-10-17T08:37:05.418Z,15.51
2022-10-17T08:39:37.388Z,15.58
2022-10-17T08:42:31.244Z,15.65
2022-10-17T08:45:17.684Z,15.71
2022-10-17T08:47:53.960Z,15.75
2022-10-17T08:50:31.952Z,15.82
2022-10-17T08:53:11.208Z,15.90
2022-10-17T08:55:46.846Z,15.99
2022-10-17T08:58:21.837Z,16.06
2022-10-17T09:01:03.518Z,16.17
2022-10-17T09:03:54.118Z,16.26
2022-10-17T09:06:30.193Z,16.33
2022-10-17T09:09:16.812Z,16.41
2022-10-17T09:12:01.655Z,16.49
2022-10-17T09:14:55.008Z,16.56
2022-10-17T09:17:38.241Z,16.63
2022-10-17T09:20:15.974Z,16.71
2022-10-17T09:25:42.835Z,16.85
2022-10-17T09:28:19.449Z,16.92
2022-10-17T09:30:57.073Z,16.98
2022-10-17T09:33:35.425Z,17.04
2022-10-17T09:36:18.820Z,17.09
2022-10-17T09:38:53.799Z,17.14
2022-10-17T09:41:46.584Z,17.21
2022-10-17T09:44:24.606Z,17.30
2022-10-17T09:47:07.695Z,17.37
2022-10-17T09:49:41.429Z,17.43
2022-10-17T09:52:17.535Z,17.50
2022-10-17T09:54:51.251Z,17.56
2022-10-17T09:57:24.012Z,17.63
2022-10-17T10:00:02.151Z,17.70
2022-10-17T10:02:40.819Z,17.77
2022-10-17T10:05:21.057Z,17.84
2022-10-17T10:08:07.011Z,17.91
2022-10-17T10:10:42.972Z,17.98
2022-10-17T10:13:21.895Z,18.03
2022-10-17T10:15:53.912Z,18.10
2022-10-17T10:18:35.874Z,18.15
2022-10-17T10:21:13.957Z,18.19
2022-10-17T10:24:03.425Z,18.25
2022-10-17T10:26:40.236Z,18.32
2022-10-17T10:29:24.948Z,18.38
2022-10-17T10:31:59.896Z,18.45
2022-10-17T10:34:35.755Z,18.52
2022-10-17T10:37:17.745Z,18.56
2022-10-17T10:39:52.779Z,18.59
2022-10-17T10:42:28.595Z,18.64
2022-10-17T10:45:03.961Z,18.69
2022-10-17T10:47:36.162Z,18.77
2022-10-17T10:50:30.425Z,18.84
2022-10-17T10:53:19.651Z,18.88
2022-10-17T10:55:55.796Z,18.92
2022-10-17T10:58:38.892Z,18.96
2022-10-17T11:01:20.364Z,18.99
2022-10-17T11:04:03.849Z,19.03
2022-10-17T11:06:42.139Z,19.09
2022-10-17T11:09:23.959Z,19.16
2022-10-17T11:12:00.631Z,19.22
2022-10-17T11:14:43.464Z,19.27
2022-10-17T11:17:24.453Z,19.31
2022-10-17T11:20:04.917Z,19.36
2022-10-17T11:22:41.282Z,19.37
2022-10-17T11:25:25.891Z,19.41
2022-10-17T11:28:03.688Z,19.44
2022-10-17T11:30:45.832Z,19.46
2022-10-17T11:33:24.547Z,19.50
2022-10-17T11:36:01.100Z,19.57
2022-10-17T11:38:43.093Z,19.63
2022-10-17T11:41:18.397Z,19.68
2022-10-17T11:43:56.189Z,19.71
2022-10-17T11:46:30.534Z,19.72
2022-10-17T11:49:17.409Z,19.74
2022-10-17T11:52:00.316Z,19.75
2022-10-17T11:54:39.094Z,19.77
2022-10-17T11:57:37.490Z,19.80
2022-10-17T12:00:23.283Z,19.84
2022-10-17T12:03:06.418Z,19.85
2022-10-17T12:05:46.673Z,19.88
2022-10-17T12:08:29.225Z,19.90
2022-10-17T12:11:08.937Z,19.94
2022-10-17T12:13:56.428Z,19.96
2022-10-17T12:16:47.655Z,19.99
2022-10-17T12:19:32.661Z,19.99
2022-10-17T12:22:23.645Z,19.99
2022-10-17T12:25:03.890Z,19.98
2022-10-17T12:27:46.054Z,20.01
2022-10-17T12:30:27.445Z,20.04
2022-10-17T12:33:22.346Z,20.08
2022-10-17T12:36:14.907Z,20.12
2022-10-17T12:38:50.085Z,20.16
2022-10-17T12:41:57.840Z,20.17
2022-10-17T12:44:39.395Z,20.17
2022-10-17T12:47:40.043Z,20.19
2022-10-17T12:50:45.916Z,20.21
2022-10-17T12:53:23.999Z,20.23
2022-10-17T12:56:02.252Z,20.25
2022-10-17T12:58:35.705Z,20.26
2022-10-17T13:01:24.238Z,20.29
2022-10-17T13:03:57.986Z,20.30
2022-10-17T13:06:32.086Z,20.31
2022-10-17T13:09:06.814Z,20.35
2022-10-17T13:11:40.710Z,20.38
2022-10-17T13:14:17.568Z,20.39
2022-10-17T13:16:57.490Z,20.42
2022-10-17T13:19:32.539Z,20.45
2022-10-17T13:22:07.171Z,20.46
2022-10-17T13:24:41.422Z,20.48
2022-10-17T13:27:27.842Z,20.52
2022-10-17T13:30:02.611Z,20.57
2022-10-17T13:32:42.123Z,20.60
2022-10-17T13:35:17.187Z,20.63
2022-10-17T13:37:53.806Z,20.63
2022-10-17T13:40:44.677Z,20.58
2022-10-17T13:43:24.358Z,20.56
2022-10-17T13:46:13.677Z,20.56
2022-10-17T13:48:52.482Z,20.54
2022-10-17T13:51:24.734Z,20.52
2022-10-17T13:53:57.338Z,20.54
2022-10-17T13:56:31.125Z,20.54
2022-10-17T13:59:18.978Z,20.55
2022-10-17T14:01:52.254Z,20.55
2022-10-17T14:04:24.130Z,20.54
2022-10-17T14:06:56.627Z,20.55
2022-10-17T14:09:31.126Z,20.57
2022-10-17T14:12:07.809Z,20.58
2022-10-17T14:15:08.827Z,20.58
2022-10-17T14:17:35.007Z,20.57
2022-10-17T14:20:48.225Z,20.57
2022-10-17T14:23:21.999Z,20.54
2022-10-17T14:26:10.939Z,20.54
2022-10-17T14:28:45.641Z,20.54
2022-10-17T14:31:31.021Z,20.54
2022-10-17T14:34:04.135Z,20.55
2022-10-17T14:36:42.134Z,20.57
2022-10-17T14:39:23.282Z,20.56
2022-10-17T14:41:55.622Z,20.57
2022-10-17T14:44:30.560Z,20.55
2022-10-17T14:47:30.717Z,20.53
2022-10-17T14:50:21.124Z,20.49
2022-10-17T14:53:04.349Z,20.43
2022-10-17T14:55:38.327Z,20.37
2022-10-17T14:58:25.389Z,20.35
2022-10-17T15:00:57.824Z,20.32
2022-10-17T15:03:29.841Z,20.27
2022-10-17T15:06:16.511Z,20.25
2022-10-17T15:08:48.550Z,20.21
2022-10-17T15:11:20.560Z,20.18
2022-10-17T15:13:52.461Z,20.15
2022-10-17T15:16:25.933Z,20.11
2022-10-17T15:18:58.481Z,20.07
2022-10-17T15:21:39.485Z,20.03
2022-10-17T15:24:15.122Z,19.96
2022-10-17T15:26:47.055Z,19.91
2022-10-17T15:29:18.837Z,19.86
2022-10-17T15:31:50.711Z,19.82
2022-10-17T15:34:22.857Z,19.78
2022-10-17T15:36:55.144Z,19.74
2022-10-17T15:39:27.086Z,19.69
2022-10-17T15:41:59.289Z,19.64
2022-10-17T15:44:31.550Z,19.60
2022-10-17T15:47:04.411Z,19.56
2022-10-17T15:49:36.576Z,19.51
2022-10-17T15:52:09.939Z,19.46
2022-10-17T15:54:41.704Z,19.41
2022-10-17T15:57:19.275Z,19.37
2022-10-17T15:59:52.299Z,19.31
2022-10-17T16:02:25.389Z,19.27
2022-10-17T16:04:57.225Z,19.22
2022-10-17T16:07:51.124Z,19.18
2022-10-17T16:10:38.235Z,19.10
2022-10-17T16:13:17.324Z,19.02
2022-10-17T16:15:49.669Z,18.96
2022-10-17T16:18:52.102Z,18.92
2022-10-17T16:24:14.047Z,18.72
2022-10-17T16:26:45.940Z,18.69
2022-10-17T16:29:17.823Z,18.66
2022-10-17T16:31:49.745Z,18.64
2022-10-17T16:34:21.783Z,18.60
2022-10-17T16:36:54.111Z,18.57
2022-10-17T16:42:04.196Z,18.46
2022-10-17T16:44:38.932Z,18.41
2022-10-17T16:47:11.642Z,18.36
2022-10-17T16:49:45.327Z,18.32
2022-10-17T16:52:17.901Z,18.27
2022-10-17T16:57:35.979Z,18.18
2022-10-17T17:00:11.928Z,18.13
2022-10-17T17:02:43.804Z,18.06
2022-10-17T17:05:16.587Z,18.02
2022-10-17T17:07:48.805Z,17.98
2022-10-17T17:10:20.999Z,17.91
2022-10-17T17:12:56.766Z,17.90
2022-10-17T17:15:29.065Z,17.84
2022-10-17T17:18:05.354Z,17.80
2022-10-17T17:20:37.763Z,17.76
2022-10-17T17:23:23.347Z,17.70
2022-10-17T17:26:02.076Z,17.68
2022-10-17T17:28:35.383Z,17.63
2022-10-17T17:31:10.155Z,17.59
2022-10-17T17:33:43.719Z,17.55
2022-10-17T17:36:19.967Z,17.50
2022-10-17T17:38:54.719Z,17.47
2022-10-17T17:41:27.003Z,17.44
2022-10-17T17:43:59.231Z,17.41
2022-10-17T17:46:31.288Z,17.39
2022-10-17T17:49:03.457Z,17.36
2022-10-17T17:51:37.715Z,17.33
2022-10-17T17:54:12.622Z,17.31
2022-10-17T17:56:44.525Z,17.28
2022-10-17T17:59:16.446Z,17.26
2022-10-17T18:01:48.357Z,17.23
2022-10-17T18:04:20.236Z,17.21
2022-10-17T18:06:59.589Z,17.18
2022-10-17T18:09:31.455Z,17.15
2022-10-17T18:12:03.354Z,17.13
2022-10-17T18:14:35.563Z,17.10
2022-10-17T18:17:07.355Z,17.07
2022-10-17T18:19:39.263Z,17.05
2022-10-17T18:22:13.940Z,17.03
2022-10-17T18:24:46.028Z,16.99
2022-10-17T18:27:18.135Z,16.96
2022-10-17T18:29:50.532Z,16.93
2022-10-17T18:32:22.686Z,16.89
2022-10-17T18:34:54.727Z,16.86
2022-10-17T18:37:26.625Z,16.84
2022-10-17T18:39:58.503Z,16.82
2022-10-17T18:42:30.646Z,16.78
2022-10-17T18:45:05.698Z,16.75
2022-10-17T18:47:40.032Z,16.72
2022-10-17T18:50:12.601Z,16.69
2022-10-17T18:52:45.389Z,16.69
2022-10-17T18:55:20.575Z,16.67
2022-10-17T18:57:53.177Z,16.65
2022-10-17T19:00:25.006Z,16.61
2022-10-17T19:02:59.009Z,16.60
2022-10-17T19:05:33.882Z,16.55
2022-10-17T19:08:05.781Z,16.54
2022-10-17T19:10:37.812Z,16.54
2022-10-17T19:13:10.415Z,16.52
2022-10-17T19:15:42.319Z,16.50
2022-10-17T19:18:14.389Z,16.48
2022-10-17T19:20:47.080Z,16.47
2022-10-17T19:23:18.946Z,16.47
2022-10-17T19:25:50.767Z,16.46
2022-10-17T19:28:22.582Z,16.44
2022-10-17T19:30:57.379Z,16.43
2022-10-17T19:33:29.882Z,16.42
2022-10-17T19:36:03.729Z,16.41
2022-10-17T19:38:35.837Z,16.41
2022-10-17T19:41:10.482Z,16.37
2022-10-17T19:43:44.467Z,16.35
2022-10-17T19:46:46.790Z,16.36
2022-10-17T19:49:19.375Z,16.32
2022-10-17T19:51:51.282Z,16.31
2022-10-17T19:54:23.579Z,16.31
2022-10-17T19:56:55.369Z,16.32
2022-10-17T19:59:28.437Z,16.32
2022-10-17T20:02:00.487Z,16.31
2022-10-17T20:04:32.860Z,16.32
2022-10-17T20:07:04.912Z,16.31
2022-10-17T20:09:36.754Z,16.30
2022-10-17T20:12:08.690Z,16.29
2022-10-17T20:14:41.244Z,16.26
2022-10-17T20:17:13.185Z,16.26
2022-10-17T20:19:45.241Z,16.25
2022-10-17T20:22:17.082Z,16.25
2022-10-17T20:24:48.909Z,16.21
2022-10-17T20:27:23.163Z,16.19
2022-10-17T20:30:01.937Z,16.15
2022-10-17T20:32:39.654Z,16.13
2022-10-17T20:35:12.097Z,16.09
2022-10-17T20:37:44.109Z,16.08
2022-10-17T20:40:34.128Z,16.06
2022-10-17T20:43:07.672Z,16.02
2022-10-17T20:45:51.360Z,15.99
2022-10-17T20:48:24.141Z,15.93
2022-10-17T20:50:56.807Z,15.88
2022-10-17T20:53:37.286Z,15.85
2022-10-17T20:56:14.294Z,15.83
2022-10-17T20:58:46.105Z,15.79
2022-10-17T21:01:17.903Z,15.76
2022-10-17T21:03:50.205Z,15.75
2022-10-17T21:06:22.623Z,15.74
2022-10-17T21:08:56.832Z,15.71
2022-10-17T21:11:30.565Z,15.67
2022-10-17T21:14:04.528Z,15.63
2022-10-17T21:16:37.848Z,15.59
2022-10-17T21:19:10.895Z,15.55
2022-10-17T21:21:45.111Z,15.53
2022-10-17T21:24:20.563Z,15.51
2022-10-17T21:26:57.575Z,15.47
2022-10-17T21:29:29.449Z,15.42
2022-10-17T21:32:01.228Z,15.38
2022-10-17T21:34:33.088Z,15.37
2022-10-17T21:37:05.048Z,15.36
2022-10-17T21:39:36.775Z,15.35
2022-10-17T21:42:08.580Z,15.35
2022-10-17T21:44:40.423Z,15.35
2022-10-17T21:47:14.048Z,15.33
2022-10-17T21:49:45.853Z,15.30
2022-10-17T21:52:17.628Z,15.31
2022-10-17T21:54:49.513Z,15.31
2022-10-17T21:57:21.197Z,15.30
2022-10-17T21:59:53.036Z,15.28
2022-10-17T22:02:24.908Z,15.27
2022-10-17T22:04:56.621Z,15.24
2022-10-17T22:07:28.788Z,15.22
2022-10-17T22:10:00.637Z,15.21
2022-10-17T22:12:32.926Z,15.20
2022-10-17T22:15:05.359Z,15.18
2022-10-17T22:17:37.109Z,15.15
2022-10-17T22:20:09.922Z,15.13
2022-10-17T22:22:41.888Z,15.10
2022-10-17T22:25:13.588Z,15.07
2022-10-17T22:27:45.640Z,15.06
2022-10-17T22:30:17.618Z,15.04
2022-10-17T22:32:49.452Z,15.00
2022-10-17T22:35:21.339Z,14.97
2022-10-17T22:37:53.082Z,14.92
2022-10-17T22:40:24.797Z,14.89
2022-10-17T22:42:56.553Z,14.88
2022-10-17T22:45:28.475Z,14.84
2022-10-17T22:48:00.281Z,14.77
2022-10-17T22:50:32.054Z,14.74
2022-10-17T22:53:03.838Z,14.72
2022-10-17T22:55:35.653Z,14.71
2022-10-17T22:58:07.423Z,14.71
2022-10-17T23:00:41.345Z,14.69
2022-10-17T23:03:13.100Z,14.65
2022-10-17T23:05:45.549Z,14.63
2022-10-17T23:08:18.909Z,14.62
2022-10-17T23:10:50.994Z,14.61
2022-10-17T23:13:22.997Z,14.59
2022-10-17T23:15:56.286Z,14.57
2022-10-17T23:21:06.079Z,14.56
2022-10-17T23:23:37.963Z,14.53
2022-10-17T23:26:11.979Z,14.50
2022-10-17T23:28:44.621Z,14.48
2022-10-17T23:31:18.321Z,14.49
2022-10-17T23:33:51.137Z,14.48
2022-10-17T23:36:23.558Z,14.43
2022-10-17T23:38:57.877Z,14.43
2022-10-17T23:41:30.633Z,14.44
2022-10-17T23:44:02.587Z,14.44
2022-10-17T23:46:34.587Z,14.43
2022-10-17T23:49:07.026Z,14.39
2022-10-17T23:51:38.732Z,14.39
2022-10-17T23:54:10.464Z,14.38
2022-10-17T23:56:42.357Z,14.37
2022-10-17T23:59:14.243Z,14.36
